Nearby METAR Reports

 

KBFI - Seattle/Boeing, Washington, USA
Distance from station: S 10mi, 16km
Updated: Thu, 18-Oct-2018 6:53am PDT
Few Clouds
Few Clouds
 Wind from SE
Wind: SE 5 mph , 7 km/h
Temperature: 45°F , 7°C
Wind Chill: 42°F , 6°C
Dew Point: 41°F , 5°C
Humidity: 87%
Barometer: 30.16 inHg , 1021.3 hPa
Clouds: Few Clouds
Visibility: 10 miles , 16 km
Cloud details: Few Clouds 20000 ft
2018/10/18 13:53 KBFI 181353Z 14004KT 10SM FEW200 07/05 A3016 RMK AO2 SLP212 T00670050
KRNT - Renton, Washington, USA
Distance from station: SSE 14mi, 23km
Updated: Thu, 18-Oct-2018 6:53am PDT
Clear
Clear
 Wind from calm
Wind: Calm
Temperature: 45°F , 7°C
Dew Point: 39°F , 4°C
Humidity: 81%
Barometer: 30.16 inHg , 1021.3 hPa
Clouds: Clear
Visibility: 10 miles , 16 km
2018/10/18 13:53 KRNT 181353Z AUTO 00000KT 10SM CLR 07/04 A3016 RMK AO2 SLP219 T00670039
 
KPAE - Everett, Washington, USA
Distance from station: N 15mi, 25km
Updated: Thu, 18-Oct-2018 6:53am PDT
Clear
Clear
 Wind from calm
Wind: Calm
Temperature: 50°F , 10°C
Dew Point: 39°F , 4°C
Humidity: 67%
Barometer: 30.15 inHg , 1021 hPa
Clouds: Clear
Visibility: 10 miles , 16 km
2018/10/18 13:53 KPAE 181353Z 00000KT 10SM CLR 10/04 A3015 RMK AO2 SLP210 T01000039
KSEA - Seattle/Metro, Washington, USA
Distance from station: S 17mi, 27km
Updated: Thu, 18-Oct-2018 6:53am PDT
Mostly cloudy
Mostly cloudy
 Wind from calm
Wind: Calm
Temperature: 48°F , 9°C
Dew Point: 39°F , 4°C
Humidity: 71%
Barometer: 30.15 inHg , 1021 hPa
Clouds: Mostly cloudy
Visibility: 10 miles , 16 km
Cloud details: Mostly cloudy 25000 ft
2018/10/18 13:53 KSEA 181353Z 00000KT 10SM BKN250 09/04 A3015 RMK AO2 SLP218 T00940044
 
KPWT - Bremerton Ntnl, Washington, USA
Distance from station: SW 24mi, 39km
Updated: Thu, 18-Oct-2018 6:56am PDT
Clear
Clear
 Wind from calm
Wind: Calm
Temperature: 39°F , 4°C
Dew Point: 37°F , 3°C
Humidity: 93%
Barometer: 30.16 inHg , 1021.3 hPa
Clouds: Clear
Visibility: 9 miles , 14 km
2018/10/18 13:56 KPWT 181356Z AUTO 00000KT 9SM CLR 04/03 A3016 RMK AO2 SLP231 T00390033
KTIW - Tacoma, Washington, USA
Distance from station: SSW 32mi, 52km
Updated: Thu, 18-Oct-2018 7:03am PDT
Fog, Overcast
Fog, Overcast
 Wind from calm
Wind: Calm
Temperature: 45°F , 7°C
Dew Point: 45°F , 7°C
Humidity: 100%
Barometer: 30.16 inHg , 1021.3 hPa
Summary: Fog
Clouds: Overcast
Visibility: 1/4 mile , 0.4 km
Cloud details: Overcast 200 ft
2018/10/18 14:03 KTIW 181403Z AUTO 00000KT 1/4SM FG VV002 07/07 A3016 RMK AO2 T00670067
 
KAWO - Arlington Muni, Washington, USA
Distance from station: N 33mi, 54km
Updated: Thu, 18-Oct-2018 6:56am PDT
Clear
Clear
 Wind from calm
Wind: Calm
Temperature: 39°F , 4°C
Dew Point: 37°F , 3°C
Humidity: 93%
Barometer: 30.16 inHg , 1021.3 hPa
Clouds: Clear
Visibility: 10 miles , 16 km
2018/10/18 13:56 KAWO 181356Z AUTO 00000KT 10SM CLR 04/03 A3016 RMK AO2 SLP218 T00390033
KTCM - Tacoma/Mc Chord, Washington, USA
Distance from station: S 41mi, 65km
Updated: Thu, 18-Oct-2018 7:13am PDT
Mist, Clear
Mist, Clear
 Wind from calm
Wind: Calm
Temperature: 36°F , 2°C
Dew Point: 36°F , 2°C
Humidity: 100%
Barometer: 30.16 inHg , 1021.3 hPa
Summary: Mist
Clouds: Clear
Visibility: 3 miles , 5 km
2018/10/18 14:13 KTCM 181413Z 00000KT 3SM BR CLR 02/02 A3016 RMK AO2A SLP219 $
 
KPLU - Puyallup/Thun, Washington, USA
Distance from station: S 41mi, 66km
Updated: Thu, 18-Oct-2018 7:15am PDT
Light drizzle, Clear
Light drizzle, Clear
 Wind from calm
Wind: Calm
Temperature: 39°F , 4°C
Dew Point: 39°F , 4°C
Humidity: 100%
Barometer: 30.15 inHg , 1021 hPa
Summary: Light Drizzle
Clouds: Clear
Visibility: 10 miles , 16 km
2018/10/18 14:15 KPLU 181415Z AUTO 00000KT 10SM -DZ CLR 04/04 A3015 RMK AO2
KGRF - Fort Lewis/Gray, Washington, USA
Distance from station: SSW 45mi, 72km
Updated: Thu, 18-Oct-2018 6:58am PDT
Clear
Clear
 Wind from SE
Wind: SE 3 mph , 6 km/h
Temperature: 36°F , 2°C
Dew Point: 36°F , 2°C
Humidity: 100%
Barometer: 30.15 inHg , 1021 hPa
Clouds: Clear
Visibility: 10 miles , 16 km
2018/10/18 13:58 KGRF 181358Z AUTO 13003KT 10SM CLR 02/02 A3015 RMK AO2 SLP215 T00210021 $
 
KNUW - Whidbey Is. Nas, Washington, USA
Distance from station: NNW 48mi, 77km
Updated: Thu, 18-Oct-2018 6:56am PDT
Patches of fog, Overcast
Patches of fog, Overcast
 Wind from ESE
Wind: ESE 7 mph , 11 km/h
Temperature: 46°F , 8°C
Wind Chill: 42°F , 6°C
Dew Point: 45°F , 7°C
Humidity: 93%
Barometer: 30.19 inHg , 1022.4 hPa
Summary: Patches of Fog
Clouds: Overcast
Visibility: 8 miles , 13 km
Cloud details: Few Clouds 500 ft
Partly cloudy 18000 ft
Overcast 25000 ft
2018/10/18 13:56 KNUW 181356Z 12006KT 8SM BCFG FEW005 SCT180 OVC250 08/07 A3019 RMK AO2 SLP221 T00830067 VISNO $
KSHN - Shelton, Washington, USA
Distance from station: SW 50mi, 80km
Updated: Thu, 18-Oct-2018 6:53am PDT
Clear
Clear
 Wind from calm
Wind: Calm
Temperature: 34°F , 1°C
Dew Point: 30°F , -1°C
Humidity: 87%
Barometer: 30.14 inHg , 1020.7 hPa
Clouds: Clear
Visibility: 10 miles , 16 km
2018/10/18 13:53 KSHN 181353Z AUTO 00000KT 10SM CLR 01/M01 A3014 RMK AO2 SLP209 T00061006